Aérodrome :
LOGIN :

S'inscrire | Disclaimer

   EN    FR    IT 

 










Légende :    VFR   VFR Marginal   IFR   IFR Intensif   IFR Très Intensif
Visi : 
Plafond : 
>= 8 km
>= 3000ft
5 à 8 km
1000 à 3000 ft
1500m à 5 km
500 à 1000 ft
800 à 1500m
200 à 500 ft
< 800m
< 200 ft
Symboles :   Orages  Brouillard  Fortes neiges  Fortes précipitations  Vent > 20 kt
SIGMETs :   Divers  Orages  Givrage  Turbulence  Onde Orograph.  Cendres Volcan.







- Altitude de l'aérodrome : 102 ft
- Code IATA : CNG
- Voir les cartes d'approche


LFBG - Cognac

DERNIER METAR :
  • 250400Z AUTO 28004KT 250V310 9999 OVC022 12/10 Q1019 NOSIG

METARs EXPIRÉS :
  • 250330Z AUTO 25002KT 9999 OVC020 12/10 Q1019 NOSIG
  • 250300Z AUTO 27004KT 9999 OVC019 12/09 Q1018 NOSIG
  • 250230Z AUTO 26003KT 9999 OVC018 12/10 Q1018 NOSIG
  • 250200Z AUTO 25002KT 9999 OVC017 11/09 Q1018 NOSIG
  • 250130Z AUTO 24001KT 9999 BKN018 11/09 Q1018 NOSIG

TAF TAF LFBG
Valide du 24 à 21h jusqu'au 25 à 21h UTC


242000Z 2421/2521 31006KT CAVOK
BECMG 2422/2424 BKN018
Pas de NOTAMs connus pour ce terrain.



MET'MAP, la Météo Aéronautique d'un coup d'oeil ! - Copyright ORBIFLY Décembre 2007 - Disclaimer

ORBIFLY MET'MAP TEAM :

Programmation & Développement : Alexandra Zaïnal
Conception & Développement : Baudouin d'Aumeries
Co-Programmation & Développement : Marc-Olivier Méhu
Soutien technique & logistique : Manuel Goepfert

Contact : metmap@orbifly.com




SOURCES & CREDITS :

   NOAA